createdAt,value
2023-04-29T00:01:06.002Z,13.80
2023-04-29T00:03:33.213Z,13.74
2023-04-29T00:06:01.115Z,13.75
2023-04-29T00:08:28.128Z,13.75
2023-04-29T00:10:54.737Z,13.77
2023-04-29T00:13:21.463Z,13.73
2023-04-29T00:15:48.196Z,13.62
2023-04-29T00:18:14.836Z,13.55
2023-04-29T00:20:43.226Z,13.58
2023-04-29T00:23:09.818Z,13.63
2023-04-29T00:25:38.346Z,13.57
2023-04-29T00:28:06.020Z,13.59
2023-04-29T00:30:34.381Z,13.57
2023-04-29T00:33:01.165Z,13.61
2023-04-29T00:35:27.839Z,13.68
2023-04-29T00:37:54.461Z,13.66
2023-04-29T00:40:21.170Z,13.64
2023-04-29T00:42:47.805Z,13.62
2023-04-29T00:45:14.464Z,13.57
2023-04-29T00:47:41.055Z,13.54
2023-04-29T00:50:08.878Z,13.57
2023-04-29T00:52:37.647Z,13.51
2023-04-29T00:55:06.274Z,13.56
2023-04-29T00:57:34.633Z,13.58
2023-04-29T01:00:01.441Z,13.63
2023-04-29T01:02:28.807Z,13.64
2023-04-29T01:04:55.713Z,13.70
2023-04-29T01:07:47.222Z,13.76
2023-04-29T01:10:19.957Z,13.76
2023-04-29T01:12:59.793Z,13.76
2023-04-29T01:15:41.667Z,13.66
2023-04-29T01:18:40.577Z,13.70
2023-04-29T01:21:07.157Z,13.73
2023-04-29T01:23:33.853Z,13.66
2023-04-29T01:26:00.572Z,13.70
2023-04-29T01:28:35.367Z,13.73
2023-04-29T01:31:15.481Z,13.73
2023-04-29T01:33:51.174Z,13.70
2023-04-29T01:36:35.550Z,13.68
2023-04-29T01:39:27.054Z,13.68
2023-04-29T01:42:15.256Z,13.64
2023-04-29T01:44:43.765Z,13.75
2023-04-29T01:47:14.020Z,13.72
2023-04-29T01:49:41.018Z,13.68
2023-04-29T01:52:07.638Z,13.70
2023-04-29T01:54:37.008Z,13.78
2023-04-29T01:57:03.612Z,13.71
2023-04-29T01:59:31.694Z,13.70
2023-04-29T02:01:59.016Z,13.64
2023-04-29T02:04:25.996Z,13.76
2023-04-29T02:06:52.928Z,13.77
2023-04-29T02:09:19.676Z,13.79
2023-04-29T02:11:46.245Z,13.77
2023-04-29T02:14:12.873Z,13.83
2023-04-29T02:16:39.518Z,13.86
2023-04-29T02:19:06.228Z,13.89
2023-04-29T02:21:32.863Z,13.85
2023-04-29T02:23:59.523Z,13.94
2023-04-29T02:26:26.165Z,13.95
2023-04-29T02:28:52.734Z,13.96
2023-04-29T02:31:19.339Z,13.97
2023-04-29T02:33:46.001Z,13.94
2023-04-29T02:36:12.595Z,13.98
2023-04-29T02:38:39.174Z,14.01
2023-04-29T02:41:05.739Z,14.05
2023-04-29T02:43:32.323Z,14.05
2023-04-29T02:45:59.008Z,14.09
2023-04-29T02:48:25.621Z,14.07
2023-04-29T02:50:52.841Z,13.98
2023-04-29T02:53:20.939Z,13.94
2023-04-29T02:55:48.361Z,13.91
2023-04-29T02:58:14.970Z,13.95
2023-04-29T03:00:42.182Z,13.95
2023-04-29T03:03:09.419Z,13.92
2023-04-29T03:05:36.542Z,13.90
2023-04-29T03:08:04.238Z,13.91
2023-04-29T03:10:30.971Z,13.91
2023-04-29T03:12:57.546Z,13.87
2023-04-29T03:15:24.165Z,13.90
2023-04-29T03:17:50.845Z,13.93
2023-04-29T03:20:17.538Z,13.96
2023-04-29T03:22:44.096Z,13.89
2023-04-29T03:25:10.821Z,13.86
2023-04-29T03:27:37.404Z,13.82
2023-04-29T03:30:04.508Z,13.81
2023-04-29T03:32:31.131Z,13.82
2023-04-29T03:34:57.809Z,13.71
2023-04-29T03:37:24.394Z,13.78
2023-04-29T03:39:51.086Z,13.83
2023-04-29T03:42:17.942Z,13.83
2023-04-29T03:44:44.651Z,13.89
2023-04-29T03:47:11.253Z,13.85
2023-04-29T03:49:37.844Z,13.91
2023-04-29T03:52:04.919Z,14.00
2023-04-29T03:54:31.534Z,13.91
2023-04-29T03:56:58.154Z,13.93
2023-04-29T03:59:24.768Z,13.94
2023-04-29T04:01:52.460Z,13.80
2023-04-29T04:04:19.210Z,13.80
2023-04-29T04:06:51.300Z,13.77
2023-04-29T04:09:18.866Z,13.73
2023-04-29T04:11:45.702Z,13.66
2023-04-29T04:14:12.392Z,13.75
2023-04-29T04:16:39.021Z,13.80
2023-04-29T04:19:05.693Z,13.81
2023-04-29T04:21:32.305Z,13.78
2023-04-29T04:23:59.016Z,13.75
2023-04-29T04:26:25.696Z,13.76
2023-04-29T04:28:52.321Z,13.70
2023-04-29T04:31:19.046Z,13.70
2023-04-29T04:33:45.653Z,13.44
2023-04-29T04:36:12.270Z,13.28
2023-04-29T04:38:38.818Z,13.25
2023-04-29T04:41:08.916Z,13.20
2023-04-29T04:43:35.581Z,13.22
2023-04-29T04:46:11.042Z,13.21
2023-04-29T04:48:37.700Z,13.25
2023-04-29T04:51:12.011Z,13.23
2023-04-29T04:53:39.409Z,13.29
2023-04-29T04:56:06.876Z,13.29
2023-04-29T04:58:33.613Z,13.35
2023-04-29T05:01:00.996Z,13.36
2023-04-29T05:03:28.262Z,13.43
2023-04-29T05:05:58.910Z,13.47
2023-04-29T05:08:26.091Z,13.49
2023-04-29T05:10:54.193Z,13.52
2023-04-29T05:13:21.256Z,13.51
2023-04-29T05:15:48.187Z,13.44
2023-04-29T05:18:14.794Z,13.55
2023-04-29T05:20:41.411Z,13.55
2023-04-29T05:23:08.845Z,13.53
2023-04-29T05:25:35.612Z,13.67
2023-04-29T05:28:04.548Z,13.76
2023-04-29T05:30:30.996Z,13.84
2023-04-29T05:32:57.650Z,13.81
2023-04-29T05:35:24.305Z,13.91
2023-04-29T05:37:51.243Z,13.91
2023-04-29T05:40:17.967Z,13.99
2023-04-29T05:42:44.550Z,14.01
2023-04-29T05:45:12.515Z,14.24
2023-04-29T05:47:39.199Z,14.46
2023-04-29T05:50:06.519Z,14.63
2023-04-29T05:52:33.123Z,14.76
2023-04-29T05:54:59.764Z,14.82
2023-04-29T05:57:26.419Z,14.86
2023-04-29T05:59:55.219Z,14.89
2023-04-29T06:02:21.848Z,14.99
2023-04-29T06:04:49.031Z,14.91
2023-04-29T06:07:18.909Z,15.03
2023-04-29T06:09:47.039Z,15.11
2023-04-29T06:12:13.664Z,15.18
2023-04-29T06:14:40.431Z,15.03
2023-04-29T06:17:07.081Z,14.96
2023-04-29T06:19:34.128Z,14.96
2023-04-29T06:22:00.801Z,14.97
2023-04-29T06:24:27.444Z,15.03
2023-04-29T06:26:54.036Z,15.17
2023-04-29T06:29:20.663Z,15.25
2023-04-29T06:31:47.335Z,15.29
2023-04-29T06:34:13.972Z,15.39
2023-04-29T06:36:41.628Z,15.56
2023-04-29T06:39:08.310Z,15.53
2023-04-29T06:41:34.983Z,15.78
2023-04-29T06:44:01.669Z,15.92
2023-04-29T06:46:29.269Z,16.16
2023-04-29T06:48:56.029Z,16.56
2023-04-29T06:51:22.765Z,16.77
2023-04-29T06:53:49.396Z,16.82
2023-04-29T06:56:17.072Z,16.89
2023-04-29T06:58:43.978Z,16.87
2023-04-29T07:01:11.026Z,16.81
2023-04-29T07:03:37.966Z,16.54
2023-04-29T07:06:05.201Z,16.39
2023-04-29T07:08:32.188Z,16.61
2023-04-29T07:10:58.880Z,16.55
2023-04-29T07:13:26.154Z,16.74
2023-04-29T07:15:53.007Z,16.75
2023-04-29T07:18:19.663Z,16.91
2023-04-29T07:20:47.916Z,17.02
2023-04-29T07:23:14.968Z,16.80
2023-04-29T07:25:41.664Z,16.99
2023-04-29T07:28:11.416Z,17.14
2023-04-29T07:30:38.617Z,17.13
2023-04-29T07:33:05.443Z,17.16
2023-04-29T07:35:32.016Z,17.30
2023-04-29T07:37:58.630Z,17.36
2023-04-29T07:40:25.306Z,17.20
2023-04-29T07:42:52.544Z,17.42
2023-04-29T07:45:19.250Z,17.48
2023-04-29T07:47:45.981Z,17.60
2023-04-29T07:50:12.909Z,17.85
2023-04-29T07:52:39.525Z,17.73
2023-04-29T07:55:06.432Z,17.36
2023-04-29T07:57:33.065Z,17.73
2023-04-29T07:59:59.759Z,17.96
2023-04-29T08:02:26.552Z,18.16
2023-04-29T08:04:54.788Z,18.10
2023-04-29T08:07:21.710Z,17.98
2023-04-29T08:09:48.375Z,18.04
2023-04-29T08:12:15.372Z,17.99
2023-04-29T08:14:41.947Z,18.00
2023-04-29T08:17:08.702Z,17.94
2023-04-29T08:19:35.846Z,18.06
2023-04-29T08:22:04.257Z,18.04
2023-04-29T08:24:31.194Z,18.13
2023-04-29T08:26:58.966Z,18.35
2023-04-29T08:29:25.636Z,18.58
2023-04-29T08:31:52.304Z,18.89
2023-04-29T08:34:19.080Z,18.92
2023-04-29T08:36:45.685Z,18.80
2023-04-29T08:39:12.430Z,18.99
2023-04-29T08:41:39.348Z,19.28
2023-04-29T08:44:06.224Z,19.36
2023-04-29T08:46:33.211Z,19.55
2023-04-29T08:49:03.980Z,19.85
2023-04-29T08:51:32.322Z,20.24
2023-04-29T08:53:59.062Z,20.20
2023-04-29T08:56:28.128Z,19.72
2023-04-29T08:58:56.454Z,20.12
2023-04-29T09:01:24.200Z,20.22
2023-04-29T09:04:05.009Z,20.39
2023-04-29T09:06:33.412Z,20.19
2023-04-29T09:09:02.143Z,20.65
2023-04-29T09:11:30.078Z,20.65
2023-04-29T09:14:03.452Z,21.06
2023-04-29T09:16:30.575Z,21.29
2023-04-29T09:18:57.598Z,21.49
2023-04-29T09:21:27.280Z,20.99
2023-04-29T09:23:59.211Z,20.15
2023-04-29T09:26:26.809Z,19.91
2023-04-29T09:29:09.256Z,19.76
2023-04-29T09:31:37.982Z,20.66
2023-04-29T09:34:05.004Z,20.67
2023-04-29T09:36:37.879Z,21.88
2023-04-29T09:39:14.006Z,22.04
2023-04-29T09:41:52.851Z,22.34
2023-04-29T09:44:20.221Z,22.33
2023-04-29T09:47:02.826Z,22.52
2023-04-29T09:49:38.838Z,21.95
2023-04-29T09:52:10.956Z,21.52
2023-04-29T09:54:39.906Z,22.87
2023-04-29T09:57:08.737Z,23.15
2023-04-29T09:59:41.033Z,22.58
2023-04-29T10:02:15.571Z,22.75
2023-04-29T10:04:45.612Z,21.40
2023-04-29T10:07:18.736Z,21.93
2023-04-29T10:09:47.683Z,21.70
2023-04-29T10:12:19.935Z,22.23
2023-04-29T10:15:00.019Z,21.68
2023-04-29T10:17:49.578Z,21.61
2023-04-29T10:20:23.097Z,21.58
2023-04-29T10:22:58.169Z,22.49
2023-04-29T10:25:27.986Z,21.95
2023-04-29T10:27:56.013Z,21.72
2023-04-29T10:30:23.315Z,22.09
2023-04-29T10:32:52.396Z,21.41
2023-04-29T10:35:25.556Z,21.14
2023-04-29T10:37:54.326Z,22.08
2023-04-29T10:40:24.821Z,22.97
2023-04-29T10:42:53.372Z,22.51
2023-04-29T10:45:27.624Z,21.66
2023-04-29T10:48:05.740Z,21.70
2023-04-29T10:50:33.185Z,21.59
2023-04-29T10:53:04.222Z,21.76
2023-04-29T10:55:31.350Z,21.28
2023-04-29T10:57:58.192Z,21.00
2023-04-29T11:00:32.072Z,21.52
2023-04-29T11:03:00.708Z,21.43
2023-04-29T11:05:37.802Z,22.13
2023-04-29T11:08:10.545Z,22.26
2023-04-29T11:10:38.741Z,21.93
2023-04-29T11:13:26.820Z,21.27
2023-04-29T11:15:54.429Z,21.21
2023-04-29T11:18:21.434Z,21.68
2023-04-29T11:21:20.858Z,22.51
2023-04-29T11:23:47.916Z,22.03
2023-04-29T11:26:14.926Z,21.79
2023-04-29T11:28:43.411Z,20.67
2023-04-29T11:31:09.901Z,20.59
2023-04-29T11:33:36.517Z,21.53
2023-04-29T11:36:03.663Z,22.34
2023-04-29T11:38:31.087Z,22.32
2023-04-29T11:40:58.144Z,22.50
2023-04-29T11:43:25.625Z,21.16
2023-04-29T11:45:53.610Z,21.37
2023-04-29T11:48:25.278Z,20.59
2023-04-29T11:50:54.952Z,20.99
2023-04-29T11:53:25.213Z,21.85
2023-04-29T11:55:56.129Z,22.19
2023-04-29T11:58:23.940Z,21.71
2023-04-29T12:00:52.071Z,22.24
2023-04-29T12:03:20.536Z,21.82
2023-04-29T12:05:56.984Z,21.45
2023-04-29T12:08:29.088Z,21.27
2023-04-29T12:10:58.381Z,21.14
2023-04-29T12:13:28.920Z,21.88
2023-04-29T12:15:56.702Z,21.86
2023-04-29T12:18:23.958Z,21.87
2023-04-29T12:20:55.933Z,21.81
2023-04-29T12:23:24.524Z,21.64
2023-04-29T12:25:56.907Z,21.71
2023-04-29T12:28:25.327Z,21.56
2023-04-29T12:30:54.348Z,21.44
2023-04-29T12:33:28.404Z,21.53
2023-04-29T12:35:57.626Z,21.50
2023-04-29T12:38:29.891Z,22.12
2023-04-29T12:40:58.783Z,21.87
2023-04-29T12:43:33.586Z,21.67
2023-04-29T12:46:04.582Z,21.56
2023-04-29T12:48:33.598Z,21.20
2023-04-29T12:51:01.963Z,21.68
2023-04-29T12:53:32.091Z,22.07
2023-04-29T12:55:58.937Z,22.36
2023-04-29T12:58:29.369Z,22.22
2023-04-29T13:00:56.193Z,21.78
2023-04-29T13:03:23.045Z,21.51
2023-04-29T13:05:52.768Z,21.55
2023-04-29T13:08:20.001Z,21.83
2023-04-29T13:10:46.628Z,22.43
2023-04-29T13:13:13.286Z,22.79
2023-04-29T13:15:43.866Z,22.63
2023-04-29T13:18:11.399Z,21.48
2023-04-29T13:20:42.048Z,21.35
2023-04-29T13:23:46.337Z,21.57
2023-04-29T13:26:13.681Z,21.59
2023-04-29T13:28:41.368Z,21.60
2023-04-29T13:31:07.955Z,21.97
2023-04-29T13:33:38.294Z,21.84
2023-04-29T13:36:06.962Z,22.09
2023-04-29T13:38:33.623Z,22.48
2023-04-29T13:41:11.632Z,22.54
2023-04-29T13:43:43.652Z,22.28
2023-04-29T13:46:11.436Z,21.99
2023-04-29T13:54:37.483Z,21.73
2023-04-29T14:04:01.255Z,22.27
2023-04-29T14:06:28.512Z,22.19
2023-04-29T14:08:55.191Z,22.46
2023-04-29T14:11:21.820Z,22.71
2023-04-29T14:13:48.445Z,22.75
2023-04-29T14:16:15.196Z,22.15
2023-04-29T14:18:41.792Z,22.01
2023-04-29T14:21:08.611Z,22.32
2023-04-29T14:23:35.188Z,22.38
2023-04-29T14:26:17.156Z,22.46
2023-04-29T14:28:48.475Z,22.02
2023-04-29T14:31:17.095Z,22.29
2023-04-29T14:33:44.566Z,22.36
2023-04-29T14:36:11.193Z,22.35
2023-04-29T14:38:37.803Z,22.48
2023-04-29T14:41:04.384Z,21.92
2023-04-29T14:43:31.226Z,21.84
2023-04-29T14:45:58.666Z,21.87
2023-04-29T14:48:25.729Z,21.70
2023-04-29T14:50:52.418Z,21.96
2023-04-29T14:53:19.028Z,22.06
2023-04-29T14:55:45.990Z,22.08
2023-04-29T14:58:12.581Z,21.49
2023-04-29T15:00:39.192Z,21.67
2023-04-29T15:03:05.846Z,21.40
2023-04-29T15:05:32.607Z,21.59
2023-04-29T15:08:00.548Z,21.78
2023-04-29T15:10:28.262Z,21.83
2023-04-29T15:12:55.130Z,21.56
2023-04-29T15:15:22.860Z,21.51
2023-04-29T15:17:49.961Z,21.61
2023-04-29T15:20:16.586Z,21.55
2023-04-29T15:22:43.240Z,21.76
2023-04-29T15:25:10.128Z,21.77
2023-04-29T15:27:37.953Z,21.87
2023-04-29T15:30:06.668Z,21.44
2023-04-29T15:32:33.271Z,21.43
2023-04-29T15:35:01.113Z,21.53
2023-04-29T15:37:29.019Z,21.58
2023-04-29T15:39:56.391Z,21.71
2023-04-29T15:42:23.178Z,21.69
2023-04-29T15:44:49.769Z,21.43
2023-04-29T15:47:16.416Z,21.30
2023-04-29T15:49:43.085Z,21.27
2023-04-29T15:52:10.547Z,21.26
2023-04-29T15:54:37.397Z,21.18
2023-04-29T15:57:04.281Z,21.44
2023-04-29T15:59:31.877Z,21.50
2023-04-29T16:01:58.553Z,21.39
2023-04-29T16:04:25.441Z,21.36
2023-04-29T16:06:55.411Z,20.99
2023-04-29T16:09:22.048Z,21.11
2023-04-29T16:11:48.947Z,21.28
2023-04-29T16:14:15.602Z,21.23
2023-04-29T16:16:43.138Z,21.09
2023-04-29T16:19:10.369Z,21.09
2023-04-29T16:21:37.052Z,20.91
2023-04-29T16:24:03.651Z,20.73
2023-04-29T16:26:30.357Z,20.89
2023-04-29T16:28:57.971Z,20.98
2023-04-29T16:31:24.901Z,21.01
2023-04-29T16:33:51.682Z,20.98
2023-04-29T16:36:18.571Z,21.02
2023-04-29T16:38:45.389Z,20.78
2023-04-29T16:41:12.036Z,20.82
2023-04-29T16:43:38.641Z,20.60
2023-04-29T16:46:05.561Z,20.64
2023-04-29T16:48:32.211Z,20.64
2023-04-29T16:50:59.118Z,20.61
2023-04-29T16:53:25.719Z,20.65
2023-04-29T16:55:52.497Z,20.51
2023-04-29T16:58:19.565Z,20.51
2023-04-29T17:00:47.775Z,20.60
2023-04-29T17:03:14.772Z,20.19
2023-04-29T17:05:41.938Z,20.57
2023-04-29T17:08:08.739Z,20.55
2023-04-29T17:10:35.842Z,20.49
2023-04-29T17:13:02.542Z,20.52
2023-04-29T17:15:29.578Z,20.40
2023-04-29T17:17:56.220Z,20.41
2023-04-29T17:20:23.467Z,20.42
2023-04-29T17:22:50.394Z,20.37
2023-04-29T17:25:18.111Z,20.18
2023-04-29T17:27:46.133Z,20.38
2023-04-29T17:30:13.321Z,20.43
2023-04-29T17:32:40.143Z,20.39
2023-04-29T17:35:08.387Z,20.39
2023-04-29T17:37:38.553Z,20.32
2023-04-29T17:40:14.610Z,20.14
2023-04-29T17:42:41.654Z,20.19
2023-04-29T17:45:08.886Z,20.11
2023-04-29T17:47:35.669Z,20.09
2023-04-29T17:50:02.908Z,19.98
2023-04-29T17:52:29.671Z,19.96
2023-04-29T17:54:56.282Z,19.84
2023-04-29T17:57:23.130Z,19.80
2023-04-29T17:59:49.869Z,19.61
2023-04-29T18:02:16.560Z,19.61
2023-04-29T18:04:43.383Z,19.49
2023-04-29T18:07:10.231Z,19.36
2023-04-29T18:09:37.465Z,19.36
2023-04-29T18:12:04.875Z,19.26
2023-04-29T18:14:31.990Z,19.20
2023-04-29T18:17:01.366Z,19.18
2023-04-29T18:19:28.241Z,19.11
2023-04-29T18:21:59.283Z,18.91
2023-04-29T18:24:26.278Z,18.92
2023-04-29T18:26:52.900Z,18.95
2023-04-29T18:29:19.493Z,18.87
2023-04-29T18:31:46.311Z,18.85
2023-04-29T18:34:12.964Z,18.84
2023-04-29T18:36:39.760Z,18.80
2023-04-29T18:39:07.333Z,18.75
2023-04-29T18:41:33.960Z,18.73
2023-04-29T18:44:00.616Z,18.72
2023-04-29T18:46:29.654Z,18.70
2023-04-29T18:48:56.488Z,18.69
2023-04-29T18:51:23.336Z,18.58
2023-04-29T18:53:49.949Z,18.55
2023-04-29T18:56:16.746Z,18.45
2023-04-29T18:58:43.317Z,18.33
2023-04-29T19:01:09.912Z,18.31
2023-04-29T19:03:36.748Z,18.21
2023-04-29T19:06:03.820Z,18.20
2023-04-29T19:08:30.673Z,18.09
2023-04-29T19:10:58.669Z,18.00
2023-04-29T19:13:27.751Z,17.96
2023-04-29T19:15:55.182Z,17.93
2023-04-29T19:18:23.249Z,17.86
2023-04-29T19:20:50.318Z,17.84
2023-04-29T19:23:16.958Z,17.74
2023-04-29T19:25:44.050Z,17.66
2023-04-29T19:28:10.664Z,17.58
2023-04-29T19:30:37.250Z,17.48
2023-04-29T19:33:04.363Z,17.52
2023-04-29T19:35:31.143Z,17.41
2023-04-29T19:37:57.758Z,17.38
2023-04-29T19:40:24.344Z,17.18
2023-04-29T19:42:50.924Z,17.24
2023-04-29T19:45:17.510Z,17.20
2023-04-29T19:47:44.281Z,17.13
2023-04-29T19:50:11.038Z,17.15
2023-04-29T19:52:37.734Z,17.12
2023-04-29T19:55:04.988Z,17.07
2023-04-29T19:57:32.041Z,17.04
2023-04-29T19:59:58.623Z,16.97
2023-04-29T20:02:25.343Z,16.86
2023-04-29T20:04:51.996Z,16.83
2023-04-29T20:07:18.720Z,16.73
2023-04-29T20:09:45.873Z,16.64
2023-04-29T20:12:12.484Z,16.64
2023-04-29T20:14:39.155Z,16.59
2023-04-29T20:17:06.484Z,16.56
2023-04-29T20:19:34.936Z,16.53
2023-04-29T20:22:01.626Z,16.52
2023-04-29T20:24:28.353Z,16.51
2023-04-29T20:26:54.988Z,16.48
2023-04-29T20:29:21.609Z,16.50
2023-04-29T20:31:48.286Z,16.44
2023-04-29T20:34:14.931Z,16.38
2023-04-29T20:36:41.570Z,16.40
2023-04-29T20:39:09.391Z,16.38
2023-04-29T20:41:36.017Z,16.36
2023-04-29T20:44:03.122Z,16.33
2023-04-29T20:46:29.815Z,16.31
2023-04-29T20:48:56.579Z,16.28
2023-04-29T20:51:23.583Z,16.18
2023-04-29T20:53:50.177Z,16.24
2023-04-29T20:56:16.737Z,16.23
2023-04-29T20:58:43.404Z,16.09
2023-04-29T21:01:10.046Z,16.04
2023-04-29T21:03:37.094Z,15.94
2023-04-29T21:06:03.839Z,15.85
2023-04-29T21:08:30.471Z,15.79
2023-04-29T21:10:57.163Z,15.73
2023-04-29T21:13:23.804Z,15.76
2023-04-29T21:15:51.040Z,15.71
2023-04-29T21:18:17.819Z,15.68
2023-04-29T21:20:44.493Z,15.64
2023-04-29T21:23:11.117Z,15.64
2023-04-29T21:25:37.718Z,15.62
2023-04-29T21:28:04.605Z,15.53
2023-04-29T21:30:31.260Z,15.57
2023-04-29T21:32:58.050Z,15.57
2023-04-29T21:35:26.047Z,15.50
2023-04-29T21:37:52.683Z,15.42
2023-04-29T21:40:19.463Z,15.38
2023-04-29T21:42:46.567Z,15.34
2023-04-29T21:45:16.113Z,15.30
2023-04-29T21:47:43.434Z,15.16
2023-04-29T21:50:11.243Z,15.02
2023-04-29T21:52:37.991Z,14.93
2023-04-29T21:55:05.097Z,14.89
2023-04-29T21:57:43.486Z,14.86
2023-04-29T22:00:28.183Z,14.79
2023-04-29T22:02:54.846Z,14.79
2023-04-29T22:05:21.476Z,14.79
2023-04-29T22:07:48.025Z,14.72
2023-04-29T22:10:14.649Z,14.69
2023-04-29T22:12:41.204Z,14.64
2023-04-29T22:15:17.138Z,14.62
2023-04-29T22:17:54.284Z,14.55
2023-04-29T22:20:21.091Z,14.52
2023-04-29T22:22:47.677Z,14.36
2023-04-29T22:25:14.236Z,14.33
2023-04-29T22:27:40.810Z,14.30
2023-04-29T22:30:08.283Z,14.18
2023-04-29T22:32:36.180Z,14.10
2023-04-29T22:35:03.005Z,14.19
2023-04-29T22:37:29.607Z,14.22
2023-04-29T22:39:57.004Z,14.19
2023-04-29T22:42:23.786Z,14.18
2023-04-29T22:44:50.791Z,14.21
2023-04-29T22:47:17.448Z,14.20
2023-04-29T22:49:44.059Z,14.26
2023-04-29T22:52:10.689Z,14.26
2023-04-29T22:54:37.324Z,14.23
2023-04-29T22:57:04.155Z,14.26
2023-04-29T22:59:30.944Z,14.24
2023-04-29T23:01:57.800Z,14.26
2023-04-29T23:04:24.781Z,14.26
2023-04-29T23:06:51.865Z,14.36
2023-04-29T23:09:18.544Z,14.32
2023-04-29T23:11:45.520Z,14.27
2023-04-29T23:14:12.081Z,14.29
2023-04-29T23:16:38.659Z,14.30
2023-04-29T23:19:05.341Z,14.30
2023-04-29T23:21:32.542Z,14.39
2023-04-29T23:23:59.153Z,14.35
2023-04-29T23:26:25.742Z,14.30
2023-04-29T23:28:52.352Z,14.33
2023-04-29T23:31:19.044Z,14.37
2023-04-29T23:33:45.679Z,14.41
2023-04-29T23:36:12.438Z,14.44
2023-04-29T23:38:39.017Z,14.43
2023-04-29T23:41:05.583Z,14.43
2023-04-29T23:43:32.209Z,14.42
2023-04-29T23:45:58.930Z,14.43
2023-04-29T23:48:25.581Z,14.36
2023-04-29T23:50:52.158Z,14.31
2023-04-29T23:53:18.744Z,14.27
2023-04-29T23:55:45.436Z,14.34
2023-04-29T23:58:12.093Z,14.34
